Aviation Digital Data Service (ADDS)

Output produced by METARs form (0728 UTC 30 October 2020)
found at http://www.aviationweather.gov/metar/data/
 
Forecast for: VVCI (CAT VI , VN)
Text: TAF VVCI 300500Z 3006/3106 35005KT 7000 SCT013 BKN050
Forecast period: 0600 UTC 30 October 2020 to 0600 UTC 31 October 2020
Forecast type: FROM: standard forecast or significant change
Winds: from the N (350 degrees) at 6 MPH (5 knots; 2.6 m/s)
Visibility: 4 miles (7 km)
Ceiling: 5000 feet AGL
Clouds: scattered clouds at 1300 feet AGL
broken clouds at 5000 feet AGL
Weather: no significant weather forecast for this period
Text: TEMPO 3009/3015 4000 RA BKN008 BKN050
Forecast period: 0900 to 1500 UTC 30 October 2020
Forecast type: TEMPORARY: The following changes expected for less than half the time period
Visibility: 2.49 miles (4.01 km)
Ceiling: 800 feet AGL
Clouds: broken clouds at 800 feet AGL
broken clouds at 5000 feet AGL
Weather: RA  (moderate rain)